createdAt,value
2019-03-20T00:00:25.548Z,87.27
2019-03-20T00:02:53.957Z,87.82
2019-03-20T00:05:21.790Z,87.59
2019-03-20T00:07:50.128Z,87.42
2019-03-20T00:10:18.550Z,87.35
2019-03-20T00:12:46.636Z,87.53
2019-03-20T00:15:14.909Z,87.78
2019-03-20T00:17:42.763Z,87.82
2019-03-20T00:20:10.905Z,87.57
2019-03-20T00:22:38.996Z,87.68
2019-03-20T00:25:07.270Z,87.33
2019-03-20T00:27:35.318Z,87.31
2019-03-20T00:30:03.859Z,87.22
2019-03-20T00:32:32.028Z,87.56
2019-03-20T00:35:01.096Z,87.73
2019-03-20T00:37:29.519Z,87.94
2019-03-20T00:39:57.463Z,88.15
2019-03-20T00:42:25.473Z,88.20
2019-03-20T00:44:53.427Z,87.40
2019-03-20T00:47:21.683Z,87.01
2019-03-20T00:49:49.570Z,86.04
2019-03-20T00:52:17.652Z,84.95
2019-03-20T00:54:45.442Z,84.37
2019-03-20T00:57:13.612Z,84.06
2019-03-20T00:59:41.611Z,83.69
2019-03-20T01:02:09.633Z,83.62
2019-03-20T01:04:37.579Z,82.99
2019-03-20T01:07:07.071Z,83.90
2019-03-20T01:09:35.323Z,83.46
2019-03-20T01:12:03.351Z,82.86
2019-03-20T01:14:31.605Z,82.91
2019-03-20T01:16:59.600Z,82.88
2019-03-20T01:19:27.554Z,82.53
2019-03-20T01:21:55.707Z,83.11
2019-03-20T01:24:23.783Z,83.51
2019-03-20T01:26:51.841Z,83.38
2019-03-20T01:29:19.906Z,83.47
2019-03-20T01:31:47.943Z,82.98
2019-03-20T01:34:16.087Z,82.51
2019-03-20T01:36:44.016Z,81.72
2019-03-20T01:39:12.229Z,81.70
2019-03-20T01:41:40.547Z,81.72
2019-03-20T01:44:08.844Z,81.96
2019-03-20T01:46:36.727Z,82.38
2019-03-20T01:49:05.020Z,82.31
2019-03-20T01:51:33.094Z,83.06
2019-03-20T01:54:01.076Z,83.33
2019-03-20T01:56:29.205Z,83.14
2019-03-20T01:58:57.442Z,82.85
2019-03-20T02:01:25.460Z,82.56
2019-03-20T02:03:53.376Z,82.57
2019-03-20T02:06:21.258Z,82.38
2019-03-20T02:08:49.227Z,83.21
2019-03-20T02:11:17.561Z,83.56
2019-03-20T02:13:45.545Z,83.96
2019-03-20T02:16:13.541Z,83.61
2019-03-20T02:18:42.438Z,84.07
2019-03-20T02:21:10.645Z,84.54
2019-03-20T02:23:38.753Z,84.31
2019-03-20T02:26:06.713Z,84.47
2019-03-20T02:28:34.575Z,84.67
2019-03-20T02:31:02.546Z,84.74
2019-03-20T02:33:30.489Z,85.17
2019-03-20T02:35:58.691Z,85.12
2019-03-20T02:38:26.845Z,85.57
2019-03-20T02:40:56.302Z,85.15
2019-03-20T02:43:24.106Z,85.34
2019-03-20T02:45:52.038Z,84.93
2019-03-20T02:48:19.945Z,83.96
2019-03-20T02:50:47.948Z,84.31
2019-03-20T02:53:15.828Z,83.85
2019-03-20T02:55:43.685Z,82.98
2019-03-20T02:58:11.603Z,83.62
2019-03-20T03:00:39.775Z,83.41
2019-03-20T03:03:07.891Z,82.41
2019-03-20T03:05:35.700Z,82.48
2019-03-20T03:08:03.650Z,81.95
2019-03-20T03:10:31.719Z,81.35
2019-03-20T03:12:59.572Z,81.04
2019-03-20T03:15:27.954Z,82.34
2019-03-20T03:17:55.881Z,83.13
2019-03-20T03:20:23.805Z,82.46
2019-03-20T03:22:51.750Z,82.44
2019-03-20T03:25:19.803Z,82.75
2019-03-20T03:27:47.882Z,82.68
2019-03-20T03:30:16.315Z,83.75
2019-03-20T03:32:44.876Z,84.00
2019-03-20T03:35:17.370Z,83.03
2019-03-20T03:37:43.203Z,82.24
2019-03-20T03:40:11.696Z,81.00
2019-03-20T03:42:39.796Z,80.62
2019-03-20T03:45:09.402Z,82.74
2019-03-20T03:47:37.415Z,81.66
2019-03-20T03:50:05.786Z,81.79
2019-03-20T03:52:33.798Z,82.71
2019-03-20T03:55:01.955Z,82.51
2019-03-20T03:57:30.216Z,82.80
2019-03-20T03:59:58.583Z,82.83
2019-03-20T04:02:26.763Z,83.08
2019-03-20T04:04:54.760Z,83.97
2019-03-20T04:07:23.811Z,83.58
2019-03-20T04:09:52.006Z,82.64
2019-03-20T04:12:19.855Z,82.51
2019-03-20T04:14:48.136Z,80.66
2019-03-20T04:17:26.369Z,83.00
2019-03-20T04:19:54.625Z,82.50
2019-03-20T04:22:22.449Z,82.19
2019-03-20T04:24:50.662Z,82.98
2019-03-20T04:27:19.631Z,81.95
2019-03-20T04:29:47.629Z,82.02
2019-03-20T04:32:15.555Z,81.97
2019-03-20T04:34:43.468Z,82.19
2019-03-20T04:37:11.458Z,82.88
2019-03-20T04:39:39.522Z,81.50
2019-03-20T04:42:07.836Z,81.02
2019-03-20T04:44:35.963Z,83.47
2019-03-20T04:47:04.235Z,82.16
2019-03-20T04:49:32.395Z,81.67
2019-03-20T04:52:00.367Z,81.63
2019-03-20T04:54:28.468Z,81.96
2019-03-20T04:56:56.417Z,82.37
2019-03-20T04:59:24.395Z,82.45
2019-03-20T05:01:53.873Z,82.17
2019-03-20T05:04:21.849Z,82.31
2019-03-20T05:06:58.278Z,83.61
2019-03-20T05:09:19.756Z,82.82
2019-03-20T05:11:47.720Z,83.37
2019-03-20T05:14:15.477Z,82.14
2019-03-20T05:16:43.468Z,83.24
2019-03-20T05:19:12.947Z,83.85
2019-03-20T05:21:41.034Z,82.23
2019-03-20T05:24:09.100Z,83.27
2019-03-20T05:26:36.870Z,82.91
2019-03-20T05:29:05.486Z,82.91
2019-03-20T05:31:33.497Z,83.10
2019-03-20T05:34:01.517Z,82.61
2019-03-20T05:36:29.458Z,83.51
2019-03-20T05:38:57.339Z,83.35
2019-03-20T05:41:26.223Z,83.47
2019-03-20T05:43:54.308Z,83.71
2019-03-20T05:46:22.521Z,82.86
2019-03-20T05:48:50.622Z,82.24
2019-03-20T05:51:18.465Z,81.56
2019-03-20T05:53:46.524Z,81.02
2019-03-20T05:56:14.380Z,80.00
2019-03-20T05:58:42.432Z,80.16
2019-03-20T06:01:10.158Z,77.48
2019-03-20T06:03:38.264Z,77.16
2019-03-20T06:06:06.179Z,76.28
2019-03-20T06:08:34.098Z,76.47
2019-03-20T06:11:02.109Z,75.60
2019-03-20T06:13:30.184Z,75.11
2019-03-20T06:15:58.204Z,74.32
2019-03-20T06:18:26.269Z,72.42
2019-03-20T06:20:54.283Z,71.88
2019-03-20T06:23:22.411Z,71.43
2019-03-20T06:25:51.423Z,71.20
2019-03-20T06:28:19.698Z,70.09
2019-03-20T06:30:47.964Z,69.34
2019-03-20T06:33:15.771Z,68.37
2019-03-20T06:35:43.845Z,67.89
2019-03-20T06:38:11.977Z,68.35
2019-03-20T06:40:39.872Z,67.52
2019-03-20T06:43:08.123Z,66.50
2019-03-20T06:45:36.331Z,66.48
2019-03-20T06:48:04.485Z,65.83
2019-03-20T06:50:33.184Z,62.88
2019-03-20T06:53:01.280Z,62.00
2019-03-20T06:55:31.895Z,61.80
2019-03-20T06:58:00.419Z,59.91
2019-03-20T07:01:05.621Z,59.05
2019-03-20T07:03:40.735Z,57.91
2019-03-20T07:06:42.148Z,57.30
2019-03-20T07:09:38.392Z,56.01
2019-03-20T07:12:06.170Z,52.77
2019-03-20T07:14:34.135Z,52.86
2019-03-20T07:17:02.068Z,52.85
2019-03-20T07:19:30.250Z,51.43
2019-03-20T07:21:58.283Z,48.97
2019-03-20T07:24:26.437Z,46.01
2019-03-20T07:26:56.013Z,44.54
2019-03-20T07:29:23.906Z,43.95
2019-03-20T07:31:53.426Z,47.00
2019-03-20T07:34:22.506Z,45.59
2019-03-20T07:36:50.569Z,46.09
2019-03-20T07:39:18.871Z,45.92
2019-03-20T07:41:46.837Z,46.33
2019-03-20T07:44:15.421Z,47.60
2019-03-20T07:46:43.490Z,47.15
2019-03-20T07:49:13.037Z,46.78
2019-03-20T07:51:40.904Z,47.26
2019-03-20T07:54:09.957Z,47.30
2019-03-20T07:56:37.869Z,48.43
2019-03-20T07:59:05.904Z,48.78
2019-03-20T08:01:33.753Z,49.00
2019-03-20T08:04:01.849Z,49.05
2019-03-20T08:06:29.609Z,48.37
2019-03-20T08:08:57.456Z,47.99
2019-03-20T08:11:25.434Z,46.17
2019-03-20T08:13:53.399Z,45.97
2019-03-20T08:16:21.427Z,47.07
2019-03-20T08:18:49.599Z,46.38
2019-03-20T08:21:17.490Z,48.04
2019-03-20T08:23:45.597Z,45.70
2019-03-20T08:26:13.774Z,45.59
2019-03-20T08:28:41.732Z,45.34
2019-03-20T08:31:09.944Z,46.26
2019-03-20T08:33:37.763Z,45.92
2019-03-20T08:36:06.160Z,47.65
2019-03-20T08:38:34.072Z,47.66
2019-03-20T08:41:02.158Z,47.60
2019-03-20T08:43:30.158Z,49.04
2019-03-20T08:45:58.366Z,47.19
2019-03-20T08:48:26.393Z,46.26
2019-03-20T08:50:54.701Z,46.22
2019-03-20T08:53:22.608Z,42.49
2019-03-20T08:55:50.530Z,43.79
2019-03-20T08:58:18.478Z,44.00
2019-03-20T09:00:46.750Z,45.32
2019-03-20T09:03:14.774Z,44.25
2019-03-20T09:05:42.964Z,45.82
2019-03-20T09:08:10.951Z,47.45
2019-03-20T09:10:38.963Z,45.65
2019-03-20T09:13:06.835Z,44.12
2019-03-20T09:15:36.863Z,45.74
2019-03-20T09:18:04.718Z,44.50
2019-03-20T09:20:33.045Z,40.10
2019-03-20T09:23:00.950Z,39.42
2019-03-20T09:25:29.005Z,41.85
2019-03-20T09:27:57.333Z,41.81
2019-03-20T09:30:25.491Z,43.66
2019-03-20T09:32:53.492Z,42.97
2019-03-20T09:35:21.594Z,45.06
2019-03-20T09:37:52.413Z,45.29
2019-03-20T09:40:19.612Z,44.36
2019-03-20T09:42:47.645Z,44.64
2019-03-20T09:45:16.010Z,43.13
2019-03-20T09:47:44.905Z,45.24
2019-03-20T09:50:14.391Z,44.88
2019-03-20T09:52:42.239Z,44.83
2019-03-20T09:55:10.088Z,43.35
2019-03-20T09:57:38.096Z,41.92
2019-03-20T10:00:26.094Z,42.00
2019-03-20T10:02:54.082Z,41.93
2019-03-20T10:05:22.763Z,42.19
2019-03-20T10:07:50.877Z,42.55
2019-03-20T10:10:20.479Z,42.32
2019-03-20T10:12:48.509Z,43.39
2019-03-20T10:15:17.078Z,41.88
2019-03-20T10:17:47.644Z,44.28
2019-03-20T10:20:17.115Z,44.96
2019-03-20T10:22:45.084Z,39.71
2019-03-20T10:25:13.036Z,35.10
2019-03-20T10:27:41.975Z,33.96
2019-03-20T10:30:12.929Z,31.84
2019-03-20T10:32:40.815Z,31.07
2019-03-20T10:35:08.875Z,30.92
2019-03-20T10:37:37.026Z,29.65
2019-03-20T10:40:06.217Z,28.00
2019-03-20T10:42:34.181Z,28.14
2019-03-20T10:45:02.184Z,29.12
2019-03-20T10:47:30.124Z,28.65
2019-03-20T10:49:58.167Z,27.91
2019-03-20T10:52:26.338Z,26.71
2019-03-20T10:54:54.384Z,27.17
2019-03-20T10:57:22.234Z,28.68
2019-03-20T10:59:50.281Z,27.74
2019-03-20T11:02:18.274Z,28.68
2019-03-20T11:04:46.294Z,27.12
2019-03-20T11:07:14.335Z,28.43
2019-03-20T11:09:42.200Z,26.96
2019-03-20T11:12:10.269Z,28.00
2019-03-20T11:14:38.252Z,28.46
2019-03-20T11:17:06.200Z,28.38
2019-03-20T11:19:34.355Z,28.13
2019-03-20T11:22:02.401Z,28.01
2019-03-20T11:24:30.716Z,26.72
2019-03-20T11:26:58.956Z,25.69
2019-03-20T11:29:26.860Z,27.33
2019-03-20T11:31:54.887Z,26.58
2019-03-20T11:34:22.894Z,28.98
2019-03-20T11:36:50.768Z,27.26
2019-03-20T11:39:29.231Z,26.22
2019-03-20T11:41:49.694Z,25.79
2019-03-20T11:44:17.825Z,25.54
2019-03-20T11:46:45.769Z,26.44
2019-03-20T11:49:14.075Z,24.41
2019-03-20T11:51:41.958Z,25.03
2019-03-20T11:54:09.982Z,26.24
2019-03-20T11:56:38.005Z,27.58
2019-03-20T11:59:05.941Z,28.80
2019-03-20T12:01:34.017Z,27.54
2019-03-20T12:04:01.921Z,25.59
2019-03-20T12:06:29.810Z,25.90
2019-03-20T12:08:57.539Z,25.59
2019-03-20T12:11:25.599Z,25.94
2019-03-20T12:13:53.862Z,26.41
2019-03-20T12:16:21.869Z,26.35
2019-03-20T12:18:49.693Z,28.10
2019-03-20T12:21:17.663Z,27.90
2019-03-20T12:23:45.579Z,28.14
2019-03-20T12:26:13.460Z,27.68
2019-03-20T12:28:41.407Z,26.03
2019-03-20T12:31:09.538Z,26.16
2019-03-20T12:33:37.634Z,25.90
2019-03-20T12:36:05.629Z,25.37
2019-03-20T12:38:33.676Z,27.37
2019-03-20T12:41:01.801Z,27.71
2019-03-20T12:43:29.742Z,25.83
2019-03-20T12:45:57.770Z,26.00
2019-03-20T12:48:25.637Z,24.33
2019-03-20T12:50:53.567Z,27.17
2019-03-20T12:53:22.242Z,26.58
2019-03-20T12:55:50.237Z,26.67
2019-03-20T12:58:18.359Z,27.92
2019-03-20T13:03:16.404Z,24.75
2019-03-20T13:05:44.365Z,24.76
2019-03-20T13:08:12.476Z,25.17
2019-03-20T13:10:40.516Z,24.71
2019-03-20T13:13:08.664Z,25.79
2019-03-20T13:15:37.998Z,25.79
2019-03-20T13:18:06.026Z,27.06
2019-03-20T13:20:34.134Z,26.73
2019-03-20T13:23:07.381Z,26.97
2019-03-20T13:25:35.718Z,26.38
2019-03-20T13:28:03.889Z,25.93
2019-03-20T13:30:37.852Z,26.49
2019-03-20T13:33:05.932Z,27.46
2019-03-20T13:35:35.042Z,27.89
2019-03-20T13:38:03.161Z,28.76
2019-03-20T13:40:32.256Z,28.65
2019-03-20T13:43:00.257Z,28.61
2019-03-20T13:45:28.347Z,28.52
2019-03-20T13:47:58.238Z,27.27
2019-03-20T13:50:26.374Z,26.57
2019-03-20T13:52:54.409Z,28.00
2019-03-20T13:55:22.557Z,29.39
2019-03-20T13:57:50.748Z,28.72
2019-03-20T14:00:20.001Z,28.13
2019-03-20T14:02:48.370Z,28.60
2019-03-20T14:05:16.468Z,28.84
2019-03-20T14:07:44.545Z,29.76
2019-03-20T14:10:24.327Z,28.57
2019-03-20T14:12:45.515Z,28.56
2019-03-20T14:15:13.706Z,27.79
2019-03-20T14:17:41.631Z,27.50
2019-03-20T14:20:11.893Z,28.03
2019-03-20T14:22:39.942Z,27.48
2019-03-20T14:25:08.186Z,27.21
2019-03-20T14:27:37.199Z,29.54
2019-03-20T14:30:08.486Z,29.72
2019-03-20T14:32:36.540Z,32.29
2019-03-20T14:35:04.651Z,33.48
2019-03-20T14:37:32.682Z,34.63
2019-03-20T14:40:00.778Z,34.33
2019-03-20T14:42:29.053Z,33.19
2019-03-20T14:44:57.205Z,32.64
2019-03-20T14:47:25.167Z,32.30
2019-03-20T14:49:53.118Z,33.07
2019-03-20T14:52:21.157Z,33.79
2019-03-20T14:54:49.260Z,34.04
2019-03-20T14:57:17.297Z,34.93
2019-03-20T14:59:45.369Z,35.03
2019-03-20T15:02:13.375Z,36.96
2019-03-20T15:04:41.559Z,37.15
2019-03-20T15:07:10.010Z,39.22
2019-03-20T15:09:38.330Z,39.59
2019-03-20T15:12:06.199Z,41.08
2019-03-20T15:14:34.232Z,41.37
2019-03-20T15:17:02.254Z,40.89
2019-03-20T15:19:30.189Z,41.05
2019-03-20T15:21:58.256Z,41.18
2019-03-20T15:24:26.530Z,41.19
2019-03-20T15:26:54.472Z,40.77
2019-03-20T15:29:22.627Z,41.23
2019-03-20T15:31:50.717Z,42.17
2019-03-20T15:34:21.792Z,41.67
2019-03-20T15:36:49.709Z,41.76
2019-03-20T15:39:17.793Z,42.40
2019-03-20T15:41:45.795Z,42.65
2019-03-20T15:44:13.831Z,43.29
2019-03-20T15:46:41.917Z,42.42
2019-03-20T15:49:11.677Z,42.27
2019-03-20T15:51:39.606Z,42.00
2019-03-20T15:54:07.747Z,42.74
2019-03-20T15:56:35.689Z,43.05
2019-03-20T15:59:03.878Z,43.33
2019-03-20T16:01:31.930Z,43.91
2019-03-20T16:03:59.910Z,42.95
2019-03-20T16:06:27.969Z,43.45
2019-03-20T16:08:56.978Z,43.60
2019-03-20T16:11:25.041Z,44.07
2019-03-20T16:13:53.113Z,44.05
2019-03-20T16:16:21.047Z,43.29
2019-03-20T16:18:48.788Z,43.36
2019-03-20T16:21:16.814Z,44.09
2019-03-20T16:23:46.874Z,43.61
2019-03-20T16:26:14.810Z,43.93
2019-03-20T16:28:42.909Z,43.50
2019-03-20T16:31:11.091Z,44.05
2019-03-20T16:33:39.212Z,44.20
2019-03-20T16:36:07.214Z,44.75
2019-03-20T16:38:35.350Z,45.45
2019-03-20T16:41:03.636Z,45.80
2019-03-20T16:43:31.716Z,45.76
2019-03-20T16:46:00.216Z,46.06
2019-03-20T16:48:28.391Z,46.26
2019-03-20T16:50:56.458Z,46.20
2019-03-20T16:53:24.563Z,47.19
2019-03-20T16:55:52.805Z,46.65
2019-03-20T16:58:20.846Z,47.06
2019-03-20T17:00:48.894Z,47.08
2019-03-20T17:03:16.644Z,47.13
2019-03-20T17:05:44.737Z,47.73
2019-03-20T17:08:12.758Z,47.97
2019-03-20T17:10:41.061Z,48.06
2019-03-20T17:13:09.135Z,48.53
2019-03-20T17:15:37.215Z,48.86
2019-03-20T17:18:05.315Z,49.16
2019-03-20T17:20:33.438Z,49.35
2019-03-20T17:23:01.333Z,49.22
2019-03-20T17:25:29.248Z,49.09
2019-03-20T17:27:57.309Z,49.56
2019-03-20T17:30:27.602Z,49.75
2019-03-20T17:32:55.536Z,50.44
2019-03-20T17:35:23.512Z,50.52
2019-03-20T17:37:51.422Z,50.15
2019-03-20T17:40:19.350Z,50.54
2019-03-20T17:42:47.280Z,50.98
2019-03-20T17:45:16.236Z,51.45
2019-03-20T17:47:43.983Z,50.77
2019-03-20T17:50:15.026Z,51.53
2019-03-20T17:52:45.119Z,51.47
2019-03-20T17:55:12.964Z,52.92
2019-03-20T17:57:41.036Z,54.60
2019-03-20T18:00:15.126Z,55.30
2019-03-20T18:02:43.184Z,56.00
2019-03-20T18:05:11.222Z,56.28
2019-03-20T18:07:39.416Z,56.36
2019-03-20T18:10:07.521Z,56.93
2019-03-20T18:12:35.523Z,57.86
2019-03-20T18:15:05.062Z,58.24
2019-03-20T18:17:33.351Z,58.99
2019-03-20T18:20:01.546Z,58.95
2019-03-20T18:22:29.484Z,59.58
2019-03-20T18:24:57.761Z,59.60
2019-03-20T18:27:25.848Z,59.42
2019-03-20T18:29:53.958Z,59.85
2019-03-20T18:32:22.352Z,59.90
2019-03-20T18:34:50.322Z,60.08
2019-03-20T18:37:18.235Z,60.41
2019-03-20T18:39:46.170Z,60.85
2019-03-20T18:42:13.968Z,61.46
2019-03-20T18:44:43.101Z,61.14
2019-03-20T18:47:11.074Z,61.61
2019-03-20T18:49:39.295Z,61.98
2019-03-20T18:52:07.427Z,61.88
2019-03-20T18:54:35.539Z,63.14
2019-03-20T18:57:03.428Z,62.50
2019-03-20T18:59:31.454Z,62.72
2019-03-20T19:01:59.343Z,63.20
2019-03-20T19:04:27.213Z,63.63
2019-03-20T19:06:55.247Z,64.15
2019-03-20T19:09:23.537Z,64.26
2019-03-20T19:11:51.797Z,64.69
2019-03-20T19:14:19.847Z,64.46
2019-03-20T19:16:47.995Z,65.19
2019-03-20T19:19:15.970Z,64.71
2019-03-20T19:21:43.997Z,64.99
2019-03-20T19:24:12.179Z,65.18
2019-03-20T19:26:43.631Z,65.27
2019-03-20T19:29:12.467Z,65.07
2019-03-20T19:31:40.700Z,65.87
2019-03-20T19:34:08.722Z,66.09
2019-03-20T19:36:36.638Z,65.94
2019-03-20T19:39:07.335Z,66.06
2019-03-20T19:41:35.299Z,66.82
2019-03-20T19:44:03.503Z,66.56
2019-03-20T19:46:31.710Z,67.18
2019-03-20T19:48:59.779Z,67.07
2019-03-20T19:51:27.849Z,67.90
2019-03-20T19:53:56.000Z,66.76
2019-03-20T19:56:23.941Z,66.91
2019-03-20T19:58:51.819Z,67.44
2019-03-20T20:01:19.900Z,67.07
2019-03-20T20:03:49.087Z,66.85
2019-03-20T20:06:20.047Z,67.41
2019-03-20T20:08:49.925Z,67.78
2019-03-20T20:11:18.028Z,68.40
2019-03-20T20:13:46.096Z,68.22
2019-03-20T20:16:14.117Z,68.22
2019-03-20T20:18:42.199Z,68.96
2019-03-20T20:21:10.301Z,68.85
2019-03-20T20:23:38.310Z,68.78
2019-03-20T20:26:06.409Z,69.14
2019-03-20T20:28:34.323Z,68.85
2019-03-20T20:31:02.315Z,69.25
2019-03-20T20:33:30.469Z,69.64
2019-03-20T20:35:58.476Z,69.36
2019-03-20T20:38:26.421Z,69.15
2019-03-20T20:40:54.291Z,69.18
2019-03-20T20:43:22.185Z,69.17
2019-03-20T20:45:50.019Z,69.80
2019-03-20T20:48:18.017Z,69.99
2019-03-20T20:50:45.961Z,70.12
2019-03-20T20:53:14.000Z,69.30
2019-03-20T20:55:42.017Z,70.08
2019-03-20T20:58:10.170Z,70.36
2019-03-20T21:00:38.079Z,70.44
2019-03-20T21:03:06.035Z,70.44
2019-03-20T21:05:34.200Z,70.45
2019-03-20T21:08:02.202Z,71.21
2019-03-20T21:10:30.244Z,71.43
2019-03-20T21:12:58.180Z,71.85
2019-03-20T21:15:40.508Z,71.12
2019-03-20T21:18:59.141Z,71.19
2019-03-20T21:22:04.699Z,72.10
2019-03-20T21:24:33.324Z,70.59
2019-03-20T21:27:43.251Z,72.05
2019-03-20T21:30:41.897Z,71.95
2019-03-20T21:33:22.676Z,71.22
2019-03-20T21:36:33.548Z,70.95
2019-03-20T21:39:01.993Z,71.82
2019-03-20T21:42:28.782Z,71.84
2019-03-20T21:45:22.807Z,71.99
2019-03-20T21:47:51.225Z,71.92
2019-03-20T21:51:01.013Z,71.54
2019-03-20T21:53:55.392Z,71.64
2019-03-20T21:56:35.407Z,71.70
2019-03-20T21:59:30.908Z,71.94
2019-03-20T22:02:28.825Z,73.21
2019-03-20T22:04:57.577Z,72.70
2019-03-20T22:07:25.944Z,72.81
2019-03-20T22:10:28.338Z,73.05
2019-03-20T22:13:19.168Z,73.11
2019-03-20T22:16:26.775Z,73.60
2019-03-20T22:19:21.147Z,73.45
2019-03-20T22:22:00.386Z,72.71
2019-03-20T22:24:52.235Z,72.94
2019-03-20T22:27:39.842Z,73.46
2019-03-20T22:30:08.741Z,73.64
2019-03-20T22:33:27.834Z,74.52
2019-03-20T22:36:18.057Z,74.68
2019-03-20T22:39:48.668Z,74.45
2019-03-20T22:42:37.528Z,73.96
2019-03-20T22:45:38.978Z,74.08
2019-03-20T22:48:43.698Z,73.98
2019-03-20T22:51:52.478Z,73.99
2019-03-20T22:54:57.574Z,74.26
2019-03-20T22:57:31.389Z,74.17
2019-03-20T23:00:00.004Z,74.46
2019-03-20T23:02:46.595Z,74.00
2019-03-20T23:05:14.987Z,74.23
2019-03-20T23:07:43.275Z,74.75
2019-03-20T23:10:13.092Z,75.56
2019-03-20T23:12:41.873Z,75.18
2019-03-20T23:15:13.744Z,75.55
2019-03-20T23:17:42.360Z,75.39
2019-03-20T23:20:13.132Z,74.69
2019-03-20T23:22:41.797Z,74.88
2019-03-20T23:25:10.299Z,74.95
2019-03-20T23:27:38.647Z,75.08
2019-03-20T23:30:11.394Z,75.63
2019-03-20T23:32:41.382Z,76.10
2019-03-20T23:35:10.020Z,76.07
2019-03-20T23:37:38.733Z,76.28
2019-03-20T23:40:09.230Z,75.93
2019-03-20T23:42:37.737Z,75.83
2019-03-20T23:45:07.824Z,75.88
2019-03-20T23:48:30.115Z,75.65
2019-03-20T23:51:02.223Z,75.74
2019-03-20T23:53:30.988Z,75.94
2019-03-20T23:55:59.295Z,75.94
2019-03-20T23:58:28.842Z,76.45
